Time;durP1;ratioP1;P1;durP2;ratioP2;P2;SDS_P1;SDS_P2;PMS_P1;PMS_P2;Temp;Humidity;BMP_temperature;BMP_pressure;BME280_temperature;BME280_humidity;BME280_pressure;Samples;Min_cycle;Max_cycle;Signal;HPM_P1;HPM_P2
2021/05/08 00:01:08;;;;;;;3.40;0.60;;;;;;;25.10;21.83;100430.66;4973150;28;20057;-65
2021/05/08 00:03:36;;;;;;;6.05;0.95;;;;;;;25.16;21.59;100429.47;4971039;28;20121;-65
2021/05/08 00:06:07;;;;;;;4.75;0.80;;;;;;;25.28;21.16;100434.25;4971944;28;20503;-65
2021/05/08 00:08:34;;;;;;;5.70;0.70;;;;;;;25.25;21.58;100443.44;4972608;28;20098;-65
2021/05/08 00:11:01;;;;;;;3.85;0.60;;;;;;;25.27;21.49;100444.19;4972094;28;20049;-65
2021/05/08 00:13:28;;;;;;;15.00;1.20;;;;;;;25.27;21.75;100452.31;4972564;28;20035;-65
2021/05/08 00:15:56;;;;;;;7.15;0.80;;;;;;;25.23;22.10;100445.31;4972333;28;20070;-66
2021/05/08 00:18:24;;;;;;;4.80;0.88;;;;;;;25.21;22.45;100458.03;4972447;28;20031;-65
2021/05/08 00:20:51;;;;;;;3.78;0.90;;;;;;;25.18;22.72;100433.88;4972466;28;20054;-65
2021/05/08 00:23:19;;;;;;;3.95;0.90;;;;;;;25.19;22.78;100413.13;4972431;28;20514;-65
2021/05/08 00:25:46;;;;;;;5.63;0.70;;;;;;;25.20;22.95;100425.69;4972126;28;20126;-65
2021/05/08 00:28:13;;;;;;;3.65;0.73;;;;;;;25.17;22.94;100429.41;4972830;28;20422;-65
2021/05/08 00:30:40;;;;;;;3.55;0.70;;;;;;;25.16;22.81;100434.88;4968754;28;20162;-64
2021/05/08 00:33:07;;;;;;;1.92;0.57;;;;;;;25.16;22.55;100446.56;4971403;28;20104;-65
2021/05/08 00:35:35;;;;;;;2.13;0.47;;;;;;;25.15;22.51;100447.50;4972750;28;20042;-66
2021/05/08 00:38:02;;;;;;;2.70;0.70;;;;;;;25.15;22.17;100462.84;4971784;28;20506;-65
2021/05/08 00:40:29;;;;;;;3.95;0.95;;;;;;;25.22;21.52;100462.47;4972151;28;20135;-66
2021/05/08 00:42:57;;;;;;;2.55;0.75;;;;;;;25.28;21.65;100462.16;4972449;28;20046;-65
2021/05/08 00:45:24;;;;;;;3.97;0.52;;;;;;;25.30;22.01;100465.69;4970461;28;20129;-65
2021/05/08 00:47:56;;;;;;;5.97;0.85;;;;;;;25.32;22.10;100439.47;4971689;28;20471;-65
2021/05/08 00:50:23;;;;;;;1.70;0.68;;;;;;;25.37;21.98;100437.41;4971939;28;20619;-64
2021/05/08 00:52:51;;;;;;;3.03;0.60;;;;;;;25.41;21.75;100417.34;4972399;28;20471;-65
2021/05/08 00:55:18;;;;;;;6.53;0.70;;;;;;;25.42;21.51;100399.31;4971641;28;20122;-65
2021/05/08 00:57:46;;;;;;;2.33;0.60;;;;;;;25.40;21.85;100401.25;4972491;28;20043;-65
2021/05/08 01:00:14;;;;;;;7.88;0.90;;;;;;;25.36;21.97;100378.88;4972344;28;20046;-65
2021/05/08 01:02:41;;;;;;;5.20;0.60;;;;;;;25.34;22.49;100378.06;4971684;28;20495;-65
2021/05/08 01:05:09;;;;;;;2.58;0.60;;;;;;;25.33;22.59;100372.78;4971867;28;20086;-64
2021/05/08 01:07:37;;;;;;;3.15;0.75;;;;;;;25.34;22.35;100369.97;4970955;28;20035;-65
2021/05/08 01:10:08;;;;;;;1.42;0.45;;;;;;;25.37;22.47;100364.41;4971320;28;20042;-65
2021/05/08 01:12:37;;;;;;;6.47;0.80;;;;;;;25.37;22.47;100377.94;4972362;28;20043;-65
2021/05/08 01:15:06;;;;;;;1.70;0.60;;;;;;;25.34;22.73;100379.91;4971852;28;20554;-65
2021/05/08 01:17:33;;;;;;;4.28;0.50;;;;;;;25.36;22.18;100361.78;4971680;28;20414;-65
2021/05/08 01:20:00;;;;;;;5.00;0.90;;;;;;;25.39;21.80;100378.72;4971334;28;20118;-65
2021/05/08 01:22:28;;;;;;;27.20;1.73;;;;;;;25.48;21.16;100398.09;4972128;28;20049;-65
2021/05/08 01:24:56;;;;;;;7.25;0.70;;;;;;;25.60;20.19;100375.91;4971982;28;20039;-65
2021/05/08 01:27:23;;;;;;;4.75;0.68;;;;;;;25.65;20.14;100380.09;4971532;28;20499;-65
2021/05/08 01:29:50;;;;;;;4.70;0.75;;;;;;;25.67;19.90;100371.88;4971439;28;20122;-65
2021/05/08 01:32:17;;;;;;;4.13;0.68;;;;;;;25.71;19.69;100381.59;4971743;28;20062;-65
2021/05/08 01:34:45;;;;;;;3.17;0.60;;;;;;;25.75;19.09;100372.38;4971234;28;20118;-65
2021/05/08 01:37:12;;;;;;;3.03;0.80;;;;;;;25.80;18.80;100354.06;4972385;28;20483;-64
2021/05/08 01:39:40;;;;;;;1.08;0.57;;;;;;;25.79;18.70;100373.97;4971844;28;20046;-65
2021/05/08 01:42:08;;;;;;;1.70;0.50;;;;;;;25.72;18.95;100362.59;4972056;28;20042;-65
2021/05/08 01:44:35;;;;;;;4.20;0.73;;;;;;;25.69;18.45;100340.25;4971634;28;20077;-65
2021/05/08 01:47:02;;;;;;;2.22;0.50;;;;;;;25.67;18.04;100350.25;4961234;28;20114;-65
2021/05/08 01:49:29;;;;;;;1.15;0.45;;;;;;;25.67;17.86;100352.97;4966507;28;20039;-65
2021/05/08 01:51:56;;;;;;;2.80;0.70;;;;;;;25.70;17.63;100358.22;4971320;28;20070;-64
2021/05/08 01:54:24;;;;;;;2.28;0.55;;;;;;;25.71;17.56;100373.50;4971661;28;20561;-64
2021/05/08 01:56:53;;;;;;;2.80;0.70;;;;;;;25.72;17.39;100367.13;4970210;28;20058;-65
2021/05/08 01:59:20;;;;;;;2.05;0.50;;;;;;;25.69;17.20;100386.22;4971421;28;20039;-65
2021/05/08 02:01:46;;;;;;;2.50;0.60;;;;;;;25.73;16.73;100382.41;4954789;28;20035;-64
2021/05/08 02:04:13;;;;;;;3.28;0.90;;;;;;;25.76;16.81;100375.00;4952626;28;20101;-65
2021/05/08 02:06:42;;;;;;;1.40;0.38;;;;;;;25.80;16.89;100360.34;4971656;28;20050;-65
2021/05/08 02:09:08;;;;;;;4.80;0.60;;;;;;;25.80;17.19;100368.47;4969073;28;20054;-65
2021/05/08 02:11:36;;;;;;;4.97;0.55;;;;;;;25.76;17.38;100377.69;4971224;28;20094;-65
2021/05/08 02:14:04;;;;;;;4.88;0.43;;;;;;;25.76;17.13;100393.06;4971549;28;20067;-65
2021/05/08 02:16:32;;;;;;;3.13;0.30;;;;;;;25.75;17.60;100399.41;4973186;28;20117;-64
2021/05/08 02:18:59;;;;;;;1.08;0.38;;;;;;;25.68;17.71;100417.78;4974225;28;20043;-64
2021/05/08 02:21:26;;;;;;;2.33;0.60;;;;;;;25.64;17.81;100385.59;4975230;28;20035;-64
2021/05/08 02:23:53;;;;;;;2.40;0.47;;;;;;;25.63;17.85;100375.72;4975471;28;20035;-64
2021/05/08 02:26:20;;;;;;;4.05;0.57;;;;;;;25.63;17.68;100383.84;4974260;28;20500;-64
2021/05/08 02:28:47;;;;;;;3.72;0.38;;;;;;;25.61;17.46;100396.56;4975306;28;20063;-64
2021/05/08 02:31:15;;;;;;;3.55;0.50;;;;;;;25.62;17.62;100379.38;4975286;28;20039;-66
2021/05/08 02:33:42;;;;;;;1.33;0.43;;;;;;;25.63;17.73;100395.53;4975027;28;20171;-64
2021/05/08 02:36:10;;;;;;;2.75;0.50;;;;;;;25.64;17.36;100378.34;4975287;28;20047;-64
2021/05/08 02:38:37;;;;;;;2.08;0.65;;;;;;;25.68;17.11;100373.66;4974033;28;20038;-64
2021/05/08 02:41:04;;;;;;;1.02;0.40;;;;;;;25.71;17.03;100366.25;4973894;28;20067;-65
2021/05/08 02:43:31;;;;;;;3.25;0.30;;;;;;;25.71;16.56;100352.75;4972654;28;20034;-64
2021/05/08 02:45:58;;;;;;;0.60;0.30;;;;;;;25.73;16.50;100353.50;4974345;28;20035;-64
2021/05/08 02:48:27;;;;;;;3.22;0.52;;;;;;;25.79;16.02;100349.63;4973552;28;20127;-63
2021/05/08 02:50:54;;;;;;;3.80;0.20;;;;;;;25.81;16.14;100347.69;4974940;28;20085;-65
2021/05/08 02:53:22;;;;;;;2.80;0.30;;;;;;;25.85;16.19;100349.28;4974497;28;20122;-64
2021/05/08 02:55:49;;;;;;;3.63;0.45;;;;;;;25.90;16.08;100344.50;4974578;28;20117;-65
2021/05/08 02:58:16;;;;;;;3.33;0.63;;;;;;;25.94;15.95;100329.84;4973194;28;20038;-65
2021/05/08 03:00:43;;;;;;;1.50;0.30;;;;;;;25.98;15.94;100309.78;4974514;28;20046;-64
2021/05/08 03:03:10;;;;;;;3.00;0.73;;;;;;;25.96;16.18;100330.63;4974471;28;20073;-65
2021/05/08 03:05:39;;;;;;;0.82;0.40;;;;;;;25.98;15.91;100326.03;4973892;28;20046;-65
2021/05/08 03:08:07;;;;;;;1.85;0.40;;;;;;;25.97;16.23;100323.41;4972809;28;20042;-65
2021/05/08 03:10:34;;;;;;;3.13;0.40;;;;;;;25.98;15.88;100330.56;4973850;28;20396;-64
2021/05/08 03:13:01;;;;;;;3.40;0.68;;;;;;;25.96;15.88;100332.47;4974179;28;20058;-65
2021/05/08 03:15:28;;;;;;;1.52;0.30;;;;;;;25.93;15.89;100332.66;4973595;28;20479;-65
2021/05/08 03:17:55;;;;;;;2.17;0.30;;;;;;;25.92;15.77;100342.59;4973673;28;20043;-65
2021/05/08 03:20:22;;;;;;;2.17;0.30;;;;;;;25.93;15.46;100352.44;4974324;28;20058;-64
2021/05/08 03:22:51;;;;;;;1.52;0.50;;;;;;;25.98;15.45;100358.50;4973912;28;20063;-65
2021/05/08 03:25:18;;;;;;;2.88;0.63;;;;;;;26.00;15.57;100353.84;4973378;28;20093;-64
2021/05/08 03:27:45;;;;;;;2.03;0.50;;;;;;;26.05;15.28;100378.84;4973265;28;20123;-65
2021/05/08 03:30:14;;;;;;;2.25;0.43;;;;;;;26.06;15.62;100380.56;4974368;28;20105;-64
2021/05/08 03:32:41;;;;;;;2.35;0.50;;;;;;;26.06;15.27;100388.69;4974005;28;20117;-65
2021/05/08 03:35:09;;;;;;;1.77;0.47;;;;;;;26.08;15.40;100397.59;4972635;28;20105;-64
2021/05/08 03:37:36;;;;;;;1.05;0.30;;;;;;;26.12;15.57;100387.50;4956382;28;20039;-65
2021/05/08 03:40:05;;;;;;;3.70;0.70;;;;;;;26.17;15.44;100390.84;4973504;28;20403;-65
2021/05/08 03:42:33;;;;;;;1.95;0.30;;;;;;;26.16;15.34;100364.72;4973279;28;20113;-64
2021/05/08 03:45:00;;;;;;;3.20;0.50;;;;;;;26.22;15.26;100369.78;4973677;28;20095;-65
2021/05/08 03:47:27;;;;;;;1.42;0.50;;;;;;;26.24;15.46;100375.13;4973291;28;20042;-65
2021/05/08 03:49:54;;;;;;;1.83;0.45;;;;;;;26.25;15.34;100382.34;4971192;28;20034;-65
2021/05/08 03:52:21;;;;;;;1.48;0.40;;;;;;;26.27;15.50;100366.84;4974042;28;20130;-65
2021/05/08 03:54:48;;;;;;;2.38;0.40;;;;;;;26.27;15.69;100373.16;4973158;28;20050;-65
2021/05/08 03:57:17;;;;;;;4.45;0.50;;;;;;;26.33;15.41;100378.22;4972871;28;20434;-65
2021/05/08 03:59:44;;;;;;;1.92;0.60;;;;;;;26.33;15.67;100380.94;4973800;28;20097;-65
2021/05/08 04:02:11;;;;;;;3.60;0.63;;;;;;;26.34;15.82;100368.25;4961376;28;20077;-65
2021/05/08 04:04:38;;;;;;;2.50;0.40;;;;;;;26.34;15.95;100377.25;4960644;28;20089;-65
2021/05/08 04:07:05;;;;;;;2.40;0.50;;;;;;;26.34;16.11;100371.84;4973307;28;20133;-65
2021/05/08 04:09:33;;;;;;;1.67;0.52;;;;;;;26.35;15.94;100373.59;4973004;28;20494;-65
2021/05/08 04:12:01;;;;;;;5.05;0.50;;;;;;;26.36;15.95;100360.94;4972613;28;20071;-64
2021/05/08 04:14:29;;;;;;;5.95;0.40;;;;;;;26.40;15.83;100346.25;4972708;28;20439;-65
2021/05/08 04:16:56;;;;;;;3.05;0.52;;;;;;;26.45;15.98;100344.19;4973159;28;20035;-65
2021/05/08 04:19:23;;;;;;;3.13;0.40;;;;;;;26.50;15.92;100334.84;4971894;28;20499;-65
2021/05/08 04:21:51;;;;;;;2.85;0.70;;;;;;;26.53;16.20;100352.72;4972794;28;20113;-65
2021/05/08 04:24:19;;;;;;;3.42;0.70;;;;;;;26.55;16.14;100357.09;4972708;28;20495;-64
2021/05/08 04:26:46;;;;;;;6.22;0.60;;;;;;;26.59;16.16;100363.22;4973126;28;20058;-65
2021/05/08 04:29:13;;;;;;;0.95;0.40;;;;;;;26.63;16.00;100374.75;4973183;28;20046;-65
2021/05/08 04:31:41;;;;;;;5.80;0.75;;;;;;;26.71;15.88;100362.53;4964758;28;20050;-65
2021/05/08 04:34:08;;;;;;;2.30;0.38;;;;;;;26.77;16.31;100367.59;4984033;28;20066;-65
2021/05/08 04:36:35;;;;;;;5.80;1.00;;;;;;;26.82;15.89;100362.78;4972581;28;20046;-65
2021/05/08 04:39:04;;;;;;;5.05;0.82;;;;;;;26.91;16.20;100361.41;4970869;28;20122;-65
2021/05/08 04:41:31;;;;;;;7.45;0.50;;;;;;;26.95;16.48;100371.09;4971807;28;20035;-64
2021/05/08 04:43:58;;;;;;;3.50;0.60;;;;;;;27.01;16.53;100327.38;4972547;28;20396;-65
2021/05/08 04:46:26;;;;;;;4.22;0.88;;;;;;;27.09;16.51;100348.63;4971093;28;20053;-64
2021/05/08 04:48:55;;;;;;;6.13;0.77;;;;;;;27.17;16.87;100359.88;4972827;28;20039;-66
2021/05/08 04:51:22;;;;;;;6.35;0.80;;;;;;;27.21;16.86;100354.19;4972451;28;20415;-64
2021/05/08 04:53:49;;;;;;;5.63;0.73;;;;;;;27.26;16.75;100349.34;4970761;28;20122;-65
2021/05/08 04:56:17;;;;;;;5.38;0.80;;;;;;;27.33;17.05;100352.56;4971162;28;20034;-65
2021/05/08 04:58:44;;;;;;;3.78;1.00;;;;;;;27.44;17.33;100369.03;4972498;28;20074;-65
2021/05/08 05:01:11;;;;;;;5.38;0.90;;;;;;;27.55;17.24;100387.44;4962611;28;20543;-65
2021/05/08 05:03:38;;;;;;;5.40;0.77;;;;;;;27.65;17.26;100386.78;4970811;28;20398;-65
2021/05/08 05:06:07;;;;;;;4.13;1.02;;;;;;;27.76;17.71;100408.69;4970374;28;20455;-65
2021/05/08 05:08:34;;;;;;;9.88;1.27;;;;;;;27.84;17.28;100412.75;4971273;28;20125;-66
2021/05/08 05:11:02;;;;;;;2.88;0.70;;;;;;;27.86;17.67;100430.72;4972424;28;20499;-65
2021/05/08 05:13:29;;;;;;;1.77;0.93;;;;;;;27.92;18.15;100449.34;4970496;28;20038;-64
2021/05/08 05:15:56;;;;;;;2.33;0.52;;;;;;;27.99;17.65;100469.72;4970649;28;20397;-65
2021/05/08 05:18:23;;;;;;;4.40;0.90;;;;;;;28.19;17.94;100484.81;4971761;28;20046;-66
2021/05/08 05:20:50;;;;;;;4.60;0.80;;;;;;;28.35;17.44;100490.16;4971927;28;20066;-66
2021/05/08 05:23:19;;;;;;;6.18;1.02;;;;;;;28.45;17.53;100505.78;4971642;28;20503;-66
2021/05/08 05:25:46;;;;;;;7.80;1.85;;;;;;;28.41;23.90;100493.38;4971393;28;20443;-67
2021/05/08 05:28:23;;;;;;;3.42;0.63;;;;;;;28.23;21.31;100464.63;4963903;28;20105;-66
2021/05/08 05:30:51;;;;;;;6.85;0.98;;;;;;;28.29;19.20;100466.13;4952380;28;20036;-66
2021/05/08 05:33:18;;;;;;;5.95;1.08;;;;;;;28.45;18.58;100465.03;4970790;28;20035;-66
2021/05/08 05:35:46;;;;;;;3.92;0.60;;;;;;;28.59;19.16;100466.88;4971950;28;20101;-66
2021/05/08 05:38:14;;;;;;;6.63;1.23;;;;;;;28.60;18.87;100455.03;4971146;28;20134;-65
2021/05/08 05:40:42;;;;;;;4.45;0.60;;;;;;;28.61;18.65;100459.53;4968444;28;20570;-65
2021/05/08 05:43:09;;;;;;;7.07;1.00;;;;;;;28.64;19.17;100458.44;4967991;28;20435;-65
2021/05/08 05:45:37;;;;;;;2.83;1.10;;;;;;;28.77;18.79;100430.41;4970812;28;20081;-65
2021/05/08 05:48:06;;;;;;;5.05;0.90;;;;;;;28.96;18.85;100423.75;4972994;28;20491;-65
2021/05/08 05:50:38;;;;;;;11.85;1.50;;;;;;;29.36;18.49;100405.66;4965666;28;20106;-65
2021/05/08 05:53:05;;;;;;;3.78;0.88;;;;;;;29.95;18.31;100404.28;4942145;28;20051;-65
2021/05/08 05:55:33;;;;;;;9.40;1.23;;;;;;;30.15;18.22;100398.28;4963139;28;20035;-65
2021/05/08 05:58:01;;;;;;;12.25;1.63;;;;;;;30.05;18.47;100399.94;4975284;28;20166;-65
2021/05/08 06:00:29;;;;;;;10.40;2.28;;;;;;;29.99;18.24;100389.50;4974934;28;20480;-65
2021/05/08 06:02:56;;;;;;;10.98;1.83;;;;;;;29.94;18.42;100392.53;4975514;28;20067;-65
2021/05/08 06:05:23;;;;;;;10.93;1.92;;;;;;;30.00;18.45;100391.22;4974671;28;20499;-65
2021/05/08 06:07:51;;;;;;;8.25;1.65;;;;;;;30.04;18.73;100374.56;4972208;28;20114;-65
2021/05/08 06:10:18;;;;;;;9.95;1.35;;;;;;;30.09;18.89;100371.50;4969831;28;20035;-64
2021/05/08 06:12:45;;;;;;;15.35;1.95;;;;;;;30.33;18.84;100368.84;4938406;28;20056;-65
2021/05/08 06:15:14;;;;;;;10.52;1.65;;;;;;;30.58;18.96;100354.34;4968544;28;20043;-65
2021/05/08 06:17:42;;;;;;;12.52;2.47;;;;;;;30.92;18.92;100360.91;4968729;28;20122;-66
2021/05/08 06:20:10;;;;;;;12.75;2.30;;;;;;;31.03;18.69;100350.03;4974573;28;20042;-66
2021/05/08 06:22:37;;;;;;;14.70;2.53;;;;;;;30.96;18.75;100346.91;4974518;28;20066;-66
2021/05/08 06:25:05;;;;;;;11.23;1.98;;;;;;;31.03;18.59;100328.22;4973682;28;20507;-65
2021/05/08 06:27:32;;;;;;;13.38;2.63;;;;;;;31.30;18.66;100334.31;4974038;28;20114;-65
2021/05/08 06:29:59;;;;;;;13.43;2.45;;;;;;;31.74;17.47;100327.25;4974860;28;20034;-65
2021/05/08 06:32:27;;;;;;;15.13;2.53;;;;;;;31.96;17.60;100322.69;4973411;28;20133;-65
2021/05/08 06:34:54;;;;;;;10.05;1.58;;;;;;;32.17;18.17;100330.16;4974453;28;20376;-65
2021/05/08 06:37:21;;;;;;;14.07;1.60;;;;;;;32.27;18.31;100328.44;4962450;28;20039;-65
2021/05/08 06:39:49;;;;;;;12.90;2.35;;;;;;;32.61;18.35;100323.78;4967939;28;20125;-65
2021/05/08 06:42:23;;;;;;;20.77;2.20;;;;;;;32.89;18.32;100301.34;4963746;28;20046;-65
2021/05/08 06:44:51;;;;;;;14.68;2.67;;;;;;;33.27;17.74;100300.84;4970799;28;20117;-65
2021/05/08 06:47:18;;;;;;;6.45;1.23;;;;;;;33.51;17.91;100306.94;4968353;28;20049;-65
2021/05/08 06:49:46;;;;;;;17.77;2.03;;;;;;;33.78;18.14;100321.97;4972202;28;20039;-65
2021/05/08 06:52:13;;;;;;;15.63;2.38;;;;;;;33.99;18.61;100288.06;4971286;28;20066;-65
2021/05/08 06:54:40;;;;;;;11.80;2.25;;;;;;;34.11;18.09;100287.97;4968027;28;20053;-65
2021/05/08 06:57:07;;;;;;;15.30;2.55;;;;;;;34.29;18.50;100294.53;4969252;28;20361;-65
2021/05/08 06:59:35;;;;;;;11.90;1.88;;;;;;;34.46;18.36;100291.16;4969237;28;20517;-66
2021/05/08 07:02:03;;;;;;;18.00;2.55;;;;;;;34.46;18.95;100284.78;4971381;28;20039;-65
2021/05/08 07:04:31;;;;;;;23.75;2.72;;;;;;;34.09;19.26;100279.00;4958723;28;20039;-65
2021/05/08 07:06:59;;;;;;;18.80;3.17;;;;;;;33.73;19.53;100269.47;4973404;28;20062;-65
2021/05/08 07:09:26;;;;;;;12.50;1.95;;;;;;;33.41;20.01;100248.50;4973933;28;20039;-65
2021/05/08 07:11:54;;;;;;;19.38;3.58;;;;;;;33.31;20.25;100252.19;4973284;28;20399;-65
2021/05/08 07:14:21;;;;;;;13.10;2.58;;;;;;;33.25;21.05;100241.78;4971417;28;20046;-65
2021/05/08 07:16:48;;;;;;;24.67;3.70;;;;;;;33.13;20.78;100241.81;4969501;28;20066;-65
2021/05/08 07:19:15;;;;;;;16.45;2.65;;;;;;;32.98;21.60;100243.13;4968440;28;20071;-65
2021/05/08 07:21:42;;;;;;;13.70;2.03;;;;;;;32.84;22.05;100246.16;4972626;28;20043;-65
2021/05/08 07:24:11;;;;;;;19.15;2.45;;;;;;;32.89;22.35;100232.09;4969869;28;20487;-66
2021/05/08 07:26:38;;;;;;;25.75;3.13;;;;;;;32.79;22.51;100223.81;4973292;28;20113;-65
2021/05/08 07:29:05;;;;;;;17.65;3.13;;;;;;;32.57;23.15;100227.47;4973058;28;20125;-65
2021/05/08 07:31:32;;;;;;;21.95;3.70;;;;;;;32.30;23.39;100222.44;4973146;28;20444;-65
2021/05/08 07:34:00;;;;;;;15.93;2.30;;;;;;;32.01;24.11;100233.03;4972485;28;20046;-65
2021/05/08 07:36:27;;;;;;;17.13;2.60;;;;;;;31.76;24.87;100226.97;4967421;28;20044;-66
2021/05/08 07:38:56;;;;;;;15.90;2.35;;;;;;;31.56;25.08;100277.69;4969663;28;20403;-66
2021/05/08 07:41:26;;;;;;;14.88;2.13;;;;;;;31.43;25.21;100323.31;4972513;28;20051;-65
2021/05/08 07:43:53;;;;;;;16.38;2.65;;;;;;;31.32;25.30;100365.06;4972093;28;20042;-65
2021/05/08 07:46:20;;;;;;;12.75;2.58;;;;;;;31.30;25.95;100383.44;4972940;28;20118;-64
2021/05/08 07:48:47;;;;;;;12.75;2.97;;;;;;;31.35;25.95;100396.72;4968481;28;20090;-65
2021/05/08 07:51:15;;;;;;;18.10;2.97;;;;;;;31.41;25.90;100391.66;4976997;28;20043;-64
2021/05/08 07:53:41;;;;;;;21.40;2.40;;;;;;;31.43;26.17;100411.50;4969582;28;20521;-64
2021/05/08 07:56:10;;;;;;;16.83;2.10;;;;;;;31.47;26.08;100404.81;4971171;28;20480;-65
2021/05/08 07:58:38;;;;;;;18.13;2.25;;;;;;;31.47;25.85;100401.22;4970722;28;20146;-65
2021/05/08 08:01:05;;;;;;;18.92;2.30;;;;;;;31.48;25.83;100403.84;4972532;28;20077;-65
2021/05/08 08:03:33;;;;;;;12.85;2.88;;;;;;;31.50;25.97;100401.00;4972165;28;20035;-65
2021/05/08 08:06:00;;;;;;;19.70;3.60;;;;;;;31.37;26.23;100394.75;4973203;28;20129;-65
2021/05/08 08:08:28;;;;;;;20.83;2.80;;;;;;;31.37;26.37;100383.81;4972919;28;20043;-65
2021/05/08 08:10:55;;;;;;;15.43;2.65;;;;;;;31.39;26.36;100373.63;4972182;28;20118;-65
2021/05/08 08:13:22;;;;;;;15.15;2.38;;;;;;;31.37;26.57;100376.50;4983668;28;20158;-65
2021/05/08 08:15:50;;;;;;;18.35;2.35;;;;;;;31.50;26.80;100390.97;4953399;28;20035;-65
2021/05/08 08:18:17;;;;;;;15.55;2.63;;;;;;;31.42;27.32;100404.31;4953775;28;20055;-66
2021/05/08 08:20:45;;;;;;;12.40;2.20;;;;;;;31.35;27.46;100397.59;4973215;28;20498;-65
2021/05/08 08:23:12;;;;;;;15.02;2.13;;;;;;;31.34;27.44;100390.38;4971688;28;20077;-65
2021/05/08 08:25:40;;;;;;;11.98;2.38;;;;;;;31.45;27.85;100376.78;4972530;28;20503;-65
2021/05/08 08:28:07;;;;;;;14.25;2.40;;;;;;;31.56;28.16;100365.91;4972443;28;20046;-65
2021/05/08 08:30:34;;;;;;;12.82;2.00;;;;;;;31.69;28.43;100357.66;4971500;28;20050;-65
2021/05/08 08:33:03;;;;;;;13.00;2.53;;;;;;;31.83;28.43;100373.81;4972628;28;20042;-65
2021/05/08 08:35:31;;;;;;;13.77;2.38;;;;;;;32.01;28.57;100371.50;4972682;28;20447;-65
2021/05/08 08:37:58;;;;;;;11.85;1.95;;;;;;;32.14;28.51;100375.00;4972076;28;20495;-65
2021/05/08 08:40:25;;;;;;;10.68;2.13;;;;;;;32.35;28.40;100375.13;4972294;28;20061;-65
2021/05/08 08:42:53;;;;;;;13.80;2.25;;;;;;;32.82;27.91;100384.94;4972993;28;20034;-65
2021/05/08 08:45:20;;;;;;;15.40;3.17;;;;;;;32.99;27.81;100378.06;4972412;28;20038;-65
2021/05/08 08:47:48;;;;;;;13.60;2.25;;;;;;;32.92;27.79;100366.75;4972273;28;20444;-65
2021/05/08 08:50:16;;;;;;;17.98;2.40;;;;;;;33.10;28.08;100373.41;4973102;28;20053;-65
2021/05/08 08:52:43;;;;;;;12.05;2.40;;;;;;;33.39;27.92;100389.25;4968215;28;20094;-65
2021/05/08 08:55:12;;;;;;;17.20;2.65;;;;;;;33.46;27.63;100391.34;4953009;28;20066;-66
2021/05/08 08:57:41;;;;;;;11.68;2.30;;;;;;;33.62;27.60;100383.53;4972054;28;20403;-65
2021/05/08 09:00:12;;;;;;;14.93;3.13;;;;;;;33.53;27.73;100387.09;4972021;28;20135;-65
2021/05/08 09:02:41;;;;;;;18.95;2.65;;;;;;;33.38;27.69;100391.13;4972037;28;20130;-66
2021/05/08 09:05:10;;;;;;;24.08;2.90;;;;;;;33.22;27.78;100407.97;4972322;28;20125;-65
2021/05/08 09:07:43;;;;;;;21.88;3.15;;;;;;;33.24;28.29;100407.84;4971949;28;20078;-65
2021/05/08 09:10:21;;;;;;;16.27;2.90;;;;;;;33.45;28.28;100414.25;4972283;28;20108;-65
2021/05/08 09:12:49;;;;;;;12.02;1.80;;;;;;;33.56;28.65;100400.50;4971254;28;20070;-65
2021/05/08 09:15:28;;;;;;;14.15;2.60;;;;;;;33.41;29.79;100429.16;4971734;28;20487;-65
2021/05/08 09:17:56;;;;;;;15.93;3.42;;;;;;;33.30;30.97;100440.19;4971130;28;20479;-64
2021/05/08 09:20:23;;;;;;;11.75;2.22;;;;;;;33.30;31.69;100453.88;4970983;28;20051;-64
2021/05/08 09:22:52;;;;;;;15.18;2.70;;;;;;;33.76;32.65;100439.88;4971663;28;20072;-64
2021/05/08 09:25:20;;;;;;;10.80;2.63;;;;;;;34.17;32.30;100435.41;4971451;28;20088;-64
2021/05/08 09:27:50;;;;;;;15.38;3.22;;;;;;;34.29;31.54;100448.06;4970881;28;20110;-65
2021/05/08 09:30:22;;;;;;;13.60;2.88;;;;;;;34.58;31.01;100443.63;4971073;28;20543;-67
2021/05/08 09:32:51;;;;;;;10.20;2.22;;;;;;;34.69;30.73;100451.72;4970463;28;20066;-65
2021/05/08 09:35:20;;;;;;;15.23;3.10;;;;;;;34.79;31.03;100427.97;4963850;28;20047;-65
2021/05/08 09:37:49;;;;;;;14.68;2.85;;;;;;;34.98;30.73;100440.03;4971769;28;20031;-66
2021/05/08 09:40:24;;;;;;;14.23;2.72;;;;;;;35.09;30.97;100449.00;4971168;28;20045;-65
2021/05/08 09:42:53;;;;;;;11.85;3.15;;;;;;;35.29;31.06;100449.94;4971849;28;20069;-65
2021/05/08 09:45:22;;;;;;;14.00;2.85;;;;;;;35.01;31.76;100426.00;4968329;28;20452;-64
2021/05/08 09:47:51;;;;;;;15.82;2.63;;;;;;;35.08;31.37;100465.59;4965855;28;20031;-64
2021/05/08 09:50:21;;;;;;;9.95;2.53;;;;;;;35.03;31.49;100467.91;4971443;28;20530;-65
2021/05/08 09:52:50;;;;;;;12.90;2.20;;;;;;;34.90;31.99;100473.66;4961155;28;20042;-64
2021/05/08 09:55:19;;;;;;;11.25;2.08;;;;;;;34.49;32.00;100460.88;4952127;28;20500;-65
2021/05/08 09:58:00;;;;;;;15.45;3.00;;;;;;;33.94;32.35;100471.16;4956567;28;20078;-65
2021/05/08 10:00:37;;;;;;;14.93;2.50;;;;;;;33.47;32.59;100466.16;4961197;28;20032;-65
2021/05/08 10:03:11;;;;;;;12.85;2.75;;;;;;;32.80;33.22;100466.25;4958220;28;20035;-64
2021/05/08 10:05:39;;;;;;;;;;;;;;;32.56;33.88;100471.78;4971453;28;20054;-65
2021/05/08 10:08:07;;;;;;;10.18;2.08;;;;;;;32.17;34.31;100483.16;4971397;28;20330;-65
2021/05/08 10:10:34;;;;;;;15.60;3.05;;;;;;;31.53;35.48;100474.44;4968562;28;20047;-65
2021/05/08 10:13:11;;;;;;;15.18;2.67;;;;;;;31.50;36.22;100497.41;4971171;28;20085;-65
2021/05/08 10:15:40;;;;;;;13.02;2.47;;;;;;;31.64;36.17;100488.16;4970641;28;20063;-65
2021/05/08 10:18:11;;;;;;;13.07;2.50;;;;;;;31.78;35.94;100470.72;4971259;28;20039;-65
2021/05/08 10:20:39;;;;;;;17.95;3.30;;;;;;;31.11;37.16;100432.19;4969710;28;20142;-65
2021/05/08 10:23:08;;;;;;;15.50;2.92;;;;;;;30.67;38.29;100421.81;4970391;28;20061;-65
2021/05/08 10:25:36;;;;;;;12.75;2.92;;;;;;;30.19;39.34;100363.56;4970828;28;20055;-65
2021/05/08 10:28:05;;;;;;;14.15;2.95;;;;;;;29.73;40.26;100373.09;4969911;28;20027;-66
2021/05/08 10:30:34;;;;;;;12.65;3.05;;;;;;;29.89;40.27;100401.97;4970244;28;20050;-65
2021/05/08 10:33:07;;;;;;;11.18;2.83;;;;;;;30.69;39.13;100437.06;4971447;28;20043;-66
2021/05/08 10:35:43;;;;;;;18.98;3.28;;;;;;;31.46;37.71;100446.75;4970305;28;20101;-65
2021/05/08 10:38:19;;;;;;;14.55;3.00;;;;;;;31.82;37.00;100432.16;4971150;28;20133;-66
2021/05/08 10:40:54;;;;;;;12.45;2.85;;;;;;;31.63;36.98;100431.84;4974811;28;20055;-66
2021/05/08 10:43:54;;;;;;;13.68;2.95;;;;;;;31.53;37.63;100490.81;4973720;28;20038;-65
2021/05/08 10:46:24;;;;;;;14.73;2.80;;;;;;;31.94;36.39;100465.84;4970526;28;20400;-65
2021/05/08 10:49:17;;;;;;;12.20;2.15;;;;;;;31.55;36.75;100476.06;4970665;28;20039;-66
2021/05/08 10:52:05;;;;;;;10.73;2.03;;;;;;;32.01;36.22;100458.91;4973234;28;20057;-65
2021/05/08 10:54:55;;;;;;;9.43;2.58;;;;;;;32.54;35.65;100483.88;4970896;28;20599;-65
2021/05/08 10:57:24;;;;;;;14.60;3.03;;;;;;;32.82;34.87;100467.00;4972933;28;20126;-66
2021/05/08 11:00:28;;;;;;;14.98;2.72;;;;;;;32.88;34.81;100491.13;4970587;28;20122;-66
2021/05/08 11:03:04;;;;;;;12.07;2.13;;;;;;;33.03;34.48;100467.06;4982791;28;20043;-66
2021/05/08 11:05:33;;;;;;;19.25;2.72;;;;;;;32.81;34.53;100457.91;4970566;28;20046;-65
2021/05/08 11:08:00;;;;;;;14.02;2.80;;;;;;;32.26;34.88;100479.72;4971410;28;20042;-66
2021/05/08 11:10:41;;;;;;;15.43;2.78;;;;;;;32.07;35.60;100474.81;4972855;28;20067;-65
2021/05/08 11:13:09;;;;;;;17.23;2.72;;;;;;;31.91;35.92;100496.09;4972426;28;20039;-65
2021/05/08 11:16:10;;;;;;;13.63;2.15;;;;;;;31.89;35.26;100495.38;4966149;28;20042;-66
2021/05/08 11:18:41;;;;;;;13.32;3.30;;;;;;;32.33;34.96;100522.84;4970528;28;20053;-65
2021/05/08 11:21:40;;;;;;;12.95;2.03;;;;;;;33.10;33.44;100495.66;4973935;28;20046;-66
2021/05/08 11:24:10;;;;;;;11.10;2.10;;;;;;;33.47;32.48;100504.47;4972109;28;20045;-65
2021/05/08 11:26:44;;;;;;;16.27;3.35;;;;;;;33.82;32.01;100521.53;4972341;28;20067;-66
2021/05/08 11:29:15;;;;;;;13.57;2.97;;;;;;;33.56;31.98;100490.88;4973642;28;20066;-66